sensor_id;sensor_type;location;lat;lon;timestamp;pressure;altitude;pressure_sealevel;temperature;humidity
32081;BME280;18593;51.426;7.030;2023-01-28T00:01:20;101760.72;;;4.89;61.14
32081;BME280;18593;51.426;7.030;2023-01-28T00:03:48;101759.75;;;4.81;61.27
32081;BME280;18593;51.426;7.030;2023-01-28T00:06:15;101756.94;;;4.92;61.08
32081;BME280;18593;51.426;7.030;2023-01-28T00:08:43;101752.06;;;4.97;60.95
32081;BME280;18593;51.426;7.030;2023-01-28T00:11:11;101759.03;;;4.98;60.67
32081;BME280;18593;51.426;7.030;2023-01-28T00:13:40;101747.91;;;4.95;60.49
32081;BME280;18593;51.426;7.030;2023-01-28T00:16:07;101747.75;;;4.96;60.31
32081;BME280;18593;51.426;7.030;2023-01-28T00:18:35;101749.72;;;4.94;60.42
32081;BME280;18593;51.426;7.030;2023-01-28T00:21:04;101748.06;;;4.93;60.03
32081;BME280;18593;51.426;7.030;2023-01-28T00:23:33;101750.44;;;4.86;59.91
32081;BME280;18593;51.426;7.030;2023-01-28T00:26:01;101741.09;;;4.82;60.41
32081;BME280;18593;51.426;7.030;2023-01-28T00:28:28;101746.53;;;4.90;60.30
32081;BME280;18593;51.426;7.030;2023-01-28T00:30:57;101752.91;;;4.88;60.13
32081;BME280;18593;51.426;7.030;2023-01-28T00:33:24;101755.75;;;4.57;59.78
32081;BME280;18593;51.426;7.030;2023-01-28T00:35:57;101755.50;;;4.41;60.24
32081;BME280;18593;51.426;7.030;2023-01-28T00:38:25;101764.38;;;4.50;60.28
32081;BME280;18593;51.426;7.030;2023-01-28T00:40:52;101760.06;;;4.49;60.15
32081;BME280;18593;51.426;7.030;2023-01-28T00:43:19;101766.19;;;4.59;60.53
32081;BME280;18593;51.426;7.030;2023-01-28T00:45:46;101764.81;;;4.45;60.05
32081;BME280;18593;51.426;7.030;2023-01-28T00:48:14;101760.91;;;4.39;60.32
32081;BME280;18593;51.426;7.030;2023-01-28T00:50:41;101761.59;;;4.51;60.07
32081;BME280;18593;51.426;7.030;2023-01-28T00:53:10;101765.22;;;4.60;60.00
32081;BME280;18593;51.426;7.030;2023-01-28T00:55:37;101769.66;;;4.40;60.11
32081;BME280;18593;51.426;7.030;2023-01-28T00:58:03;101755.34;;;4.43;60.19
32081;BME280;18593;51.426;7.030;2023-01-28T01:00:30;101758.38;;;4.28;59.89
32081;BME280;18593;51.426;7.030;2023-01-28T01:02:58;101765.34;;;4.39;60.13
32081;BME280;18593;51.426;7.030;2023-01-28T01:05:26;101766.88;;;4.51;60.32
32081;BME280;18593;51.426;7.030;2023-01-28T01:07:54;101762.56;;;4.50;60.09
32081;BME280;18593;51.426;7.030;2023-01-28T01:10:21;101763.00;;;4.55;59.80
32081;BME280;18593;51.426;7.030;2023-01-28T01:12:48;101756.47;;;4.59;60.10
32081;BME280;18593;51.426;7.030;2023-01-28T01:15:16;101761.44;;;4.62;59.72
32081;BME280;18593;51.426;7.030;2023-01-28T01:17:44;101761.03;;;4.67;59.70
32081;BME280;18593;51.426;7.030;2023-01-28T01:20:14;101764.38;;;4.69;60.00
32081;BME280;18593;51.426;7.030;2023-01-28T01:22:43;101758.09;;;4.80;59.77
32081;BME280;18593;51.426;7.030;2023-01-28T01:25:10;101758.38;;;4.77;59.70
32081;BME280;18593;51.426;7.030;2023-01-28T01:27:38;101754.34;;;4.73;59.75
32081;BME280;18593;51.426;7.030;2023-01-28T01:30:06;101752.97;;;4.78;60.00
32081;BME280;18593;51.426;7.030;2023-01-28T01:32:33;101755.75;;;4.57;59.83
32081;BME280;18593;51.426;7.030;2023-01-28T01:35:01;101761.03;;;4.57;60.02
32081;BME280;18593;51.426;7.030;2023-01-28T01:37:28;101759.63;;;4.63;59.82
32081;BME280;18593;51.426;7.030;2023-01-28T01:39:56;101767.44;;;4.74;60.12
32081;BME280;18593;51.426;7.030;2023-01-28T01:42:23;101774.53;;;4.74;59.76
32081;BME280;18593;51.426;7.030;2023-01-28T01:44:56;101773.41;;;4.76;60.11
32081;BME280;18593;51.426;7.030;2023-01-28T01:47:24;101774.38;;;4.75;60.05
32081;BME280;18593;51.426;7.030;2023-01-28T01:49:55;101769.78;;;4.58;59.91
32081;BME280;18593;51.426;7.030;2023-01-28T01:52:25;101780.91;;;4.71;59.95
32081;BME280;18593;51.426;7.030;2023-01-28T01:54:57;101773.69;;;4.54;59.87
32081;BME280;18593;51.426;7.030;2023-01-28T01:57:28;101772.41;;;4.68;59.95
32081;BME280;18593;51.426;7.030;2023-01-28T01:59:56;101788.41;;;4.76;60.08
32081;BME280;18593;51.426;7.030;2023-01-28T02:02:40;101778.13;;;4.73;59.99
32081;BME280;18593;51.426;7.030;2023-01-28T02:05:09;101784.13;;;4.75;59.73
32081;BME280;18593;51.426;7.030;2023-01-28T02:07:37;101787.03;;;4.81;59.58
32081;BME280;18593;51.426;7.030;2023-01-28T02:10:07;101782.97;;;4.87;59.14
32081;BME280;18593;51.426;7.030;2023-01-28T02:12:35;101780.75;;;4.82;59.04
32081;BME280;18593;51.426;7.030;2023-01-28T02:15:05;101785.63;;;4.77;58.96
32081;BME280;18593;51.426;7.030;2023-01-28T02:17:34;101791.75;;;4.58;58.61
32081;BME280;18593;51.426;7.030;2023-01-28T02:20:03;101784.69;;;4.49;58.76
32081;BME280;18593;51.426;7.030;2023-01-28T02:23:06;101775.38;;;4.35;58.80
32081;BME280;18593;51.426;7.030;2023-01-28T02:28:36;101794.28;;;4.41;59.25
32081;BME280;18593;51.426;7.030;2023-01-28T02:31:08;101788.56;;;4.45;58.84
32081;BME280;18593;51.426;7.030;2023-01-28T02:33:38;101791.75;;;4.49;58.94
32081;BME280;18593;51.426;7.030;2023-01-28T02:36:12;101793.28;;;4.51;58.77
32081;BME280;18593;51.426;7.030;2023-01-28T02:38:45;101792.72;;;4.57;58.59
32081;BME280;18593;51.426;7.030;2023-01-28T02:41:17;101803.44;;;4.56;58.74
32081;BME280;18593;51.426;7.030;2023-01-28T02:43:49;101798.16;;;4.56;58.72
32081;BME280;18593;51.426;7.030;2023-01-28T02:46:20;101793.56;;;4.58;57.96
32081;BME280;18593;51.426;7.030;2023-01-28T02:49:08;101803.88;;;4.51;57.33
32081;BME280;18593;51.426;7.030;2023-01-28T02:51:47;101796.09;;;4.40;57.36
32081;BME280;18593;51.426;7.030;2023-01-28T02:54:23;101797.72;;;4.22;57.27
32081;BME280;18593;51.426;7.030;2023-01-28T02:56:53;101796.59;;;4.24;57.65
32081;BME280;18593;51.426;7.030;2023-01-28T02:59:23;101805.25;;;4.36;57.44
32081;BME280;18593;51.426;7.030;2023-01-28T03:02:02;101802.75;;;4.44;57.27
32081;BME280;18593;51.426;7.030;2023-01-28T03:04:32;101804.69;;;4.42;57.10
32081;BME280;18593;51.426;7.030;2023-01-28T03:07:04;101798.44;;;4.43;56.71
32081;BME280;18593;51.426;7.030;2023-01-28T03:09:33;101791.75;;;4.39;57.09
32081;BME280;18593;51.426;7.030;2023-01-28T03:12:05;101793.28;;;4.32;56.61
32081;BME280;18593;51.426;7.030;2023-01-28T03:14:54;101795.78;;;4.43;57.05
32081;BME280;18593;51.426;7.030;2023-01-28T03:17:42;101786.91;;;4.34;56.29
32081;BME280;18593;51.426;7.030;2023-01-28T03:20:30;101794.13;;;4.42;56.10
32081;BME280;18593;51.426;7.030;2023-01-28T03:23:30;101793.84;;;4.26;56.30
32081;BME280;18593;51.426;7.030;2023-01-28T03:26:16;101784.38;;;4.23;56.99
32081;BME280;18593;51.426;7.030;2023-01-28T03:29:07;101784.25;;;4.25;56.64
32081;BME280;18593;51.426;7.030;2023-01-28T03:31:56;101780.66;;;4.26;56.11
32081;BME280;18593;51.426;7.030;2023-01-28T03:34:41;101779.50;;;4.28;56.95
32081;BME280;18593;51.426;7.030;2023-01-28T03:37:26;101787.44;;;4.38;56.90
32081;BME280;18593;51.426;7.030;2023-01-28T03:40:12;101783.28;;;4.45;56.94
32081;BME280;18593;51.426;7.030;2023-01-28T03:42:42;101780.75;;;4.24;56.13
32081;BME280;18593;51.426;7.030;2023-01-28T03:45:29;101786.31;;;4.02;55.13
32081;BME280;18593;51.426;7.030;2023-01-28T03:47:57;101791.16;;;4.06;56.44
32081;BME280;18593;51.426;7.030;2023-01-28T03:50:25;101783.41;;;4.24;56.72
32081;BME280;18593;51.426;7.030;2023-01-28T03:52:56;101790.78;;;4.30;56.49
32081;BME280;18593;51.426;7.030;2023-01-28T03:55:50;101788.25;;;4.29;55.82
32081;BME280;18593;51.426;7.030;2023-01-28T03:58:18;101797.31;;;4.36;56.17
32081;BME280;18593;51.426;7.030;2023-01-28T04:00:45;101799.00;;;4.47;55.82
32081;BME280;18593;51.426;7.030;2023-01-28T04:03:15;101793.56;;;4.38;55.71
32081;BME280;18593;51.426;7.030;2023-01-28T04:05:59;101802.19;;;4.41;55.43
32081;BME280;18593;51.426;7.030;2023-01-28T04:08:39;101793.72;;;4.37;56.06
32081;BME280;18593;51.426;7.030;2023-01-28T04:11:31;101799.69;;;4.49;55.68
32081;BME280;18593;51.426;7.030;2023-01-28T04:14:01;101804.28;;;4.47;55.70
32081;BME280;18593;51.426;7.030;2023-01-28T04:16:41;101811.78;;;4.51;55.70
32081;BME280;18593;51.426;7.030;2023-01-28T04:19:10;101815.00;;;4.45;55.45
32081;BME280;18593;51.426;7.030;2023-01-28T04:21:38;101808.72;;;4.46;55.17
32081;BME280;18593;51.426;7.030;2023-01-28T04:24:05;101812.19;;;4.47;55.12
32081;BME280;18593;51.426;7.030;2023-01-28T04:26:33;101810.97;;;4.51;55.26
32081;BME280;18593;51.426;7.030;2023-01-28T04:29:00;101823.31;;;4.41;55.25
32081;BME280;18593;51.426;7.030;2023-01-28T04:31:27;101814.56;;;4.40;55.43
32081;BME280;18593;51.426;7.030;2023-01-28T04:34:14;101814.00;;;4.46;55.31
32081;BME280;18593;51.426;7.030;2023-01-28T04:36:52;101818.16;;;4.39;55.34
32081;BME280;18593;51.426;7.030;2023-01-28T04:39:31;101818.44;;;4.36;55.39
32081;BME280;18593;51.426;7.030;2023-01-28T04:42:20;101820.78;;;4.20;54.96
32081;BME280;18593;51.426;7.030;2023-01-28T04:45:08;101822.06;;;4.35;55.32
32081;BME280;18593;51.426;7.030;2023-01-28T04:47:50;101813.59;;;4.41;55.46
32081;BME280;18593;51.426;7.030;2023-01-28T04:50:42;101808.72;;;4.46;55.16
32081;BME280;18593;51.426;7.030;2023-01-28T04:53:41;101809.13;;;4.42;54.50
32081;BME280;18593;51.426;7.030;2023-01-28T04:56:23;101814.69;;;4.48;55.08
32081;BME280;18593;51.426;7.030;2023-01-28T04:58:50;101813.19;;;4.46;55.18
32081;BME280;18593;51.426;7.030;2023-01-28T05:01:17;101811.38;;;4.46;55.30
32081;BME280;18593;51.426;7.030;2023-01-28T05:03:45;101813.19;;;4.46;55.28
32081;BME280;18593;51.426;7.030;2023-01-28T05:06:21;101804.44;;;4.45;54.62
32081;BME280;18593;51.426;7.030;2023-01-28T05:08:52;101807.06;;;4.35;54.96
32081;BME280;18593;51.426;7.030;2023-01-28T05:11:19;101812.47;;;4.44;55.08
32081;BME280;18593;51.426;7.030;2023-01-28T05:13:53;101807.06;;;4.45;54.61
32081;BME280;18593;51.426;7.030;2023-01-28T05:16:20;101805.41;;;4.44;54.98
32081;BME280;18593;51.426;7.030;2023-01-28T05:18:47;101804.53;;;4.44;54.74
32081;BME280;18593;51.426;7.030;2023-01-28T05:21:17;101804.13;;;4.38;54.60
32081;BME280;18593;51.426;7.030;2023-01-28T05:23:51;101799.13;;;4.35;54.37
32081;BME280;18593;51.426;7.030;2023-01-28T05:26:19;101803.03;;;4.41;54.94
32081;BME280;18593;51.426;7.030;2023-01-28T05:28:46;101807.91;;;4.46;54.41
32081;BME280;18593;51.426;7.030;2023-01-28T05:31:13;101815.09;;;4.44;54.70
32081;BME280;18593;51.426;7.030;2023-01-28T05:33:40;101821.78;;;4.48;54.71
32081;BME280;18593;51.426;7.030;2023-01-28T05:36:09;101824.44;;;4.48;54.41
32081;BME280;18593;51.426;7.030;2023-01-28T05:38:37;101817.31;;;4.38;54.07
32081;BME280;18593;51.426;7.030;2023-01-28T05:41:06;101817.22;;;4.40;54.01
32081;BME280;18593;51.426;7.030;2023-01-28T05:43:34;101812.34;;;4.35;54.29
32081;BME280;18593;51.426;7.030;2023-01-28T05:46:17;101819.13;;;4.28;54.47
32081;BME280;18593;51.426;7.030;2023-01-28T05:49:02;101827.88;;;4.29;54.05
32081;BME280;18593;51.426;7.030;2023-01-28T05:51:54;101829.25;;;4.13;54.08
32081;BME280;18593;51.426;7.030;2023-01-28T05:54:22;101827.31;;;4.16;54.13
32081;BME280;18593;51.426;7.030;2023-01-28T05:56:50;101831.91;;;4.23;54.38
32081;BME280;18593;51.426;7.030;2023-01-28T05:59:17;101847.06;;;4.21;54.38
32081;BME280;18593;51.426;7.030;2023-01-28T06:01:46;101846.59;;;4.06;53.98
32081;BME280;18593;51.426;7.030;2023-01-28T06:04:14;101858.03;;;4.17;54.64
32081;BME280;18593;51.426;7.030;2023-01-28T06:06:43;101856.88;;;4.09;54.58
32081;BME280;18593;51.426;7.030;2023-01-28T06:09:10;101844.25;;;4.13;54.42
32081;BME280;18593;51.426;7.030;2023-01-28T06:11:40;101849.41;;;4.24;54.28
32081;BME280;18593;51.426;7.030;2023-01-28T06:14:08;101846.94;;;4.32;54.41
32081;BME280;18593;51.426;7.030;2023-01-28T06:16:54;101848.16;;;4.28;53.96
32081;BME280;18593;51.426;7.030;2023-01-28T06:19:30;101848.69;;;4.12;53.38
32081;BME280;18593;51.426;7.030;2023-01-28T06:21:57;101846.72;;;4.05;53.70
32081;BME280;18593;51.426;7.030;2023-01-28T06:24:24;101843.81;;;4.08;53.80
32081;BME280;18593;51.426;7.030;2023-01-28T06:26:51;101844.97;;;4.15;54.05
32081;BME280;18593;51.426;7.030;2023-01-28T06:29:19;101850.53;;;4.22;54.04
32081;BME280;18593;51.426;7.030;2023-01-28T06:31:46;101842.75;;;4.20;53.58
32081;BME280;18593;51.426;7.030;2023-01-28T06:34:13;101839.81;;;4.13;54.00
32081;BME280;18593;51.426;7.030;2023-01-28T06:36:41;101846.22;;;4.21;53.65
32081;BME280;18593;51.426;7.030;2023-01-28T06:39:08;101847.19;;;4.20;53.85
32081;BME280;18593;51.426;7.030;2023-01-28T06:41:35;101846.78;;;4.24;53.35
32081;BME280;18593;51.426;7.030;2023-01-28T06:44:02;101849.69;;;4.21;53.14
32081;BME280;18593;51.426;7.030;2023-01-28T06:46:30;101851.38;;;4.22;53.18
32081;BME280;18593;51.426;7.030;2023-01-28T06:48:57;101853.19;;;4.22;52.72
32081;BME280;18593;51.426;7.030;2023-01-28T06:51:24;101847.06;;;4.21;53.29
32081;BME280;18593;51.426;7.030;2023-01-28T06:53:51;101838.59;;;4.27;53.36
32081;BME280;18593;51.426;7.030;2023-01-28T06:56:18;101835.53;;;4.32;52.97
32081;BME280;18593;51.426;7.030;2023-01-28T06:58:46;101837.09;;;4.34;52.50
32081;BME280;18593;51.426;7.030;2023-01-28T07:01:13;101832.75;;;4.33;52.59
32081;BME280;18593;51.426;7.030;2023-01-28T07:03:41;101836.09;;;4.35;52.16
32081;BME280;18593;51.426;7.030;2023-01-28T07:06:08;101828.16;;;4.26;52.33
32081;BME280;18593;51.426;7.030;2023-01-28T07:08:35;101844.28;;;4.23;52.36
32081;BME280;18593;51.426;7.030;2023-01-28T07:11:04;101849.28;;;4.26;52.88
32081;BME280;18593;51.426;7.030;2023-01-28T07:13:31;101851.94;;;4.26;52.22
32081;BME280;18593;51.426;7.030;2023-01-28T07:15:59;101858.03;;;4.17;52.41
32081;BME280;18593;51.426;7.030;2023-01-28T07:18:26;101853.31;;;4.20;52.33
32081;BME280;18593;51.426;7.030;2023-01-28T07:20:54;101861.31;;;4.09;51.96
32081;BME280;18593;51.426;7.030;2023-01-28T07:23:22;101853.84;;;4.14;52.57
32081;BME280;18593;51.426;7.030;2023-01-28T07:25:49;101851.75;;;4.18;52.57
32081;BME280;18593;51.426;7.030;2023-01-28T07:28:16;101850.06;;;3.97;51.55
32081;BME280;18593;51.426;7.030;2023-01-28T07:30:47;101850.72;;;3.99;52.22
32081;BME280;18593;51.426;7.030;2023-01-28T07:33:14;101856.19;;;4.07;52.34
32081;BME280;18593;51.426;7.030;2023-01-28T07:35:42;101850.38;;;4.13;52.42
32081;BME280;18593;51.426;7.030;2023-01-28T07:38:11;101852.88;;;4.15;52.63
32081;BME280;18593;51.426;7.030;2023-01-28T07:40:38;101862.72;;;4.13;52.65
32081;BME280;18593;51.426;7.030;2023-01-28T07:43:07;101861.22;;;4.10;52.49
32081;BME280;18593;51.426;7.030;2023-01-28T07:45:39;101874.94;;;4.04;52.16
32081;BME280;18593;51.426;7.030;2023-01-28T07:48:07;101865.09;;;4.06;51.99
32081;BME280;18593;51.426;7.030;2023-01-28T07:50:36;101849.09;;;4.08;52.27
32081;BME280;18593;51.426;7.030;2023-01-28T07:53:04;101853.97;;;4.12;52.20
32081;BME280;18593;51.426;7.030;2023-01-28T07:55:34;101857.28;;;4.05;52.27
32081;BME280;18593;51.426;7.030;2023-01-28T07:58:02;101866.34;;;4.12;52.16
32081;BME280;18593;51.426;7.030;2023-01-28T08:00:31;101874.13;;;4.13;52.28
32081;BME280;18593;51.426;7.030;2023-01-28T08:03:00;101880.09;;;4.06;52.51
32081;BME280;18593;51.426;7.030;2023-01-28T08:05:30;101872.72;;;4.09;52.52
32081;BME280;18593;51.426;7.030;2023-01-28T08:08:04;101880.59;;;4.00;52.21
32081;BME280;18593;51.426;7.030;2023-01-28T08:10:31;101894.81;;;4.08;52.29
32081;BME280;18593;51.426;7.030;2023-01-28T08:12:59;101903.56;;;4.09;51.96
32081;BME280;18593;51.426;7.030;2023-01-28T08:15:27;101898.00;;;4.02;52.33
32081;BME280;18593;51.426;7.030;2023-01-28T08:17:54;101906.34;;;4.07;52.54
32081;BME280;18593;51.426;7.030;2023-01-28T08:20:22;101898.84;;;4.12;52.75
32081;BME280;18593;51.426;7.030;2023-01-28T08:22:49;101904.34;;;4.00;51.80
32081;BME280;18593;51.426;7.030;2023-01-28T08:25:16;101904.34;;;4.00;52.06
32081;BME280;18593;51.426;7.030;2023-01-28T08:27:43;101904.78;;;4.05;51.59
32081;BME280;18593;51.426;7.030;2023-01-28T08:30:13;101905.81;;;4.13;51.34
32081;BME280;18593;51.426;7.030;2023-01-28T08:32:40;101907.22;;;4.18;51.12
32081;BME280;18593;51.426;7.030;2023-01-28T08:35:07;101913.28;;;4.08;50.87
32081;BME280;18593;51.426;7.030;2023-01-28T08:37:34;101922.16;;;3.98;50.79
32081;BME280;18593;51.426;7.030;2023-01-28T08:40:01;101918.13;;;4.03;51.42
32081;BME280;18593;51.426;7.030;2023-01-28T08:42:28;101919.25;;;4.01;50.89
32081;BME280;18593;51.426;7.030;2023-01-28T08:44:55;101934.41;;;4.08;50.83
32081;BME280;18593;51.426;7.030;2023-01-28T08:47:24;101938.03;;;4.07;51.02
32081;BME280;18593;51.426;7.030;2023-01-28T08:49:50;101939.97;;;4.05;51.18
32081;BME280;18593;51.426;7.030;2023-01-28T08:52:17;101947.34;;;4.11;51.69
32081;BME280;18593;51.426;7.030;2023-01-28T08:54:44;101952.94;;;4.18;51.22
32081;BME280;18593;51.426;7.030;2023-01-28T08:57:11;101960.72;;;4.20;51.47
32081;BME280;18593;51.426;7.030;2023-01-28T08:59:38;101967.78;;;4.19;51.15
32081;BME280;18593;51.426;7.030;2023-01-28T09:02:11;101972.44;;;4.27;51.54
32081;BME280;18593;51.426;7.030;2023-01-28T09:04:40;101965.69;;;4.13;50.89
32081;BME280;18593;51.426;7.030;2023-01-28T09:07:07;101978.25;;;4.00;50.93
32081;BME280;18593;51.426;7.030;2023-01-28T09:09:34;101977.19;;;4.02;50.92
32081;BME280;18593;51.426;7.030;2023-01-28T09:12:01;101971.75;;;4.04;51.18
32081;BME280;18593;51.426;7.030;2023-01-28T09:14:30;101975.28;;;4.14;51.66
32081;BME280;18593;51.426;7.030;2023-01-28T09:16:57;101977.28;;;4.22;51.39
32081;BME280;18593;51.426;7.030;2023-01-28T09:19:24;101971.75;;;4.25;51.47
32081;BME280;18593;51.426;7.030;2023-01-28T09:21:52;101987.53;;;4.15;51.69
32081;BME280;18593;51.426;7.030;2023-01-28T09:24:19;101987.13;;;4.20;51.93
32081;BME280;18593;51.426;7.030;2023-01-28T09:26:47;101986.16;;;4.21;52.76
32081;BME280;18593;51.426;7.030;2023-01-28T09:29:14;101983.53;;;4.21;52.17
32081;BME280;18593;51.426;7.030;2023-01-28T09:31:41;101977.81;;;4.16;51.84
32081;BME280;18593;51.426;7.030;2023-01-28T09:34:08;101990.69;;;4.09;51.47
32081;BME280;18593;51.426;7.030;2023-01-28T09:36:35;101989.00;;;4.08;51.50
32081;BME280;18593;51.426;7.030;2023-01-28T09:39:04;101996.28;;;4.16;52.11
32081;BME280;18593;51.426;7.030;2023-01-28T09:41:33;101994.16;;;4.09;51.70
32081;BME280;18593;51.426;7.030;2023-01-28T09:44:06;101994.16;;;4.09;51.92
32081;BME280;18593;51.426;7.030;2023-01-28T09:46:37;102006.13;;;4.13;52.46
32081;BME280;18593;51.426;7.030;2023-01-28T09:49:14;102001.84;;;3.92;52.07
32081;BME280;18593;51.426;7.030;2023-01-28T09:51:46;102007.19;;;4.01;52.09
32081;BME280;18593;51.426;7.030;2023-01-28T09:54:22;102002.88;;;4.00;52.11
32081;BME280;18593;51.426;7.030;2023-01-28T09:56:52;101992.56;;;3.97;52.04
32081;BME280;18593;51.426;7.030;2023-01-28T09:59:21;101990.19;;;3.94;51.79
32081;BME280;18593;51.426;7.030;2023-01-28T10:01:52;101996.34;;;4.04;52.11
32081;BME280;18593;51.426;7.030;2023-01-28T10:04:31;101991.28;;;3.92;51.22
32081;BME280;18593;51.426;7.030;2023-01-28T10:07:09;101998.25;;;3.72;51.76
32081;BME280;18593;51.426;7.030;2023-01-28T10:09:43;101996.84;;;3.68;51.75
32081;BME280;18593;51.426;7.030;2023-01-28T10:12:30;102001.38;;;3.66;51.44
32081;BME280;18593;51.426;7.030;2023-01-28T10:17:51;102004.09;;;3.75;51.30
32081;BME280;18593;51.426;7.030;2023-01-28T10:20:20;102007.69;;;3.74;50.87
32081;BME280;18593;51.426;7.030;2023-01-28T10:22:54;101997.97;;;3.75;50.98
32081;BME280;18593;51.426;7.030;2023-01-28T10:25:24;101978.44;;;3.77;51.33
32081;BME280;18593;51.426;7.030;2023-01-28T10:27:52;101980.41;;;3.85;51.04
32081;BME280;18593;51.426;7.030;2023-01-28T10:30:21;101976.88;;;3.96;50.85
32081;BME280;18593;51.426;7.030;2023-01-28T10:32:51;101972.97;;;4.00;51.03
32081;BME280;18593;51.426;7.030;2023-01-28T10:35:19;101962.97;;;3.94;51.49
32081;BME280;18593;51.426;7.030;2023-01-28T10:37:46;101964.63;;;3.95;51.90
32081;BME280;18593;51.426;7.030;2023-01-28T10:40:14;101960.91;;;3.97;51.36
32081;BME280;18593;51.426;7.030;2023-01-28T10:42:43;101970.09;;;4.03;51.59
32081;BME280;18593;51.426;7.030;2023-01-28T10:45:16;101983.88;;;4.06;51.40
32081;BME280;18593;51.426;7.030;2023-01-28T10:47:46;101980.25;;;4.07;50.74
32081;BME280;18593;51.426;7.030;2023-01-28T10:50:16;101974.34;;;4.15;51.23
32081;BME280;18593;51.426;7.030;2023-01-28T10:52:54;101995.75;;;4.22;51.40
32081;BME280;18593;51.426;7.030;2023-01-28T10:55:21;101989.75;;;4.20;51.12
32081;BME280;18593;51.426;7.030;2023-01-28T10:57:50;101998.41;;;4.22;51.47
32081;BME280;18593;51.426;7.030;2023-01-28T11:00:22;101996.97;;;4.18;51.50
32081;BME280;18593;51.426;7.030;2023-01-28T11:02:50;101994.63;;;3.94;51.18
32081;BME280;18593;51.426;7.030;2023-01-28T11:05:18;102000.50;;;3.97;51.84
32081;BME280;18593;51.426;7.030;2023-01-28T11:07:46;102011.34;;;4.04;51.58
32081;BME280;18593;51.426;7.030;2023-01-28T11:10:23;102011.69;;;3.90;50.86
32081;BME280;18593;51.426;7.030;2023-01-28T11:12:55;102021.47;;;3.78;51.33
32081;BME280;18593;51.426;7.030;2023-01-28T11:15:23;102014.66;;;3.54;51.19
32081;BME280;18593;51.426;7.030;2023-01-28T11:17:55;102025.59;;;3.71;51.63
32081;BME280;18593;51.426;7.030;2023-01-28T11:20:23;102017.88;;;3.58;51.68
32081;BME280;18593;51.426;7.030;2023-01-28T11:22:51;102032.28;;;3.75;52.53
32081;BME280;18593;51.426;7.030;2023-01-28T11:25:25;102026.25;;;3.84;51.78
32081;BME280;18593;51.426;7.030;2023-01-28T11:27:55;102012.34;;;3.82;51.91
32081;BME280;18593;51.426;7.030;2023-01-28T11:30:25;102005.72;;;3.87;51.73
32081;BME280;18593;51.426;7.030;2023-01-28T11:32:55;102006.34;;;4.01;51.62
32081;BME280;18593;51.426;7.030;2023-01-28T11:35:24;101995.72;;;4.12;51.79
32081;BME280;18593;51.426;7.030;2023-01-28T11:37:52;102000.56;;;4.07;51.26
32081;BME280;18593;51.426;7.030;2023-01-28T11:40:19;102004.66;;;4.00;51.35
32081;BME280;18593;51.426;7.030;2023-01-28T11:42:46;101996.50;;;4.03;51.23
32081;BME280;18593;51.426;7.030;2023-01-28T11:45:16;101996.69;;;3.90;50.10
32081;BME280;18593;51.426;7.030;2023-01-28T11:47:50;101992.66;;;3.86;51.12
32081;BME280;18593;51.426;7.030;2023-01-28T11:50:24;101987.03;;;4.00;50.83
32081;BME280;18593;51.426;7.030;2023-01-28T11:53:11;101991.59;;;3.98;50.69
32081;BME280;18593;51.426;7.030;2023-01-28T11:55:45;101994.44;;;3.85;50.73
32081;BME280;18593;51.426;7.030;2023-01-28T11:58:21;101988.41;;;3.74;50.33
32081;BME280;18593;51.426;7.030;2023-01-28T12:00:57;101987.03;;;3.79;51.03
32081;BME280;18593;51.426;7.030;2023-01-28T12:03:38;101990.19;;;3.94;51.54
32081;BME280;18593;51.426;7.030;2023-01-28T12:06:18;101988.28;;;3.96;50.94
32081;BME280;18593;51.426;7.030;2023-01-28T12:08:50;101982.66;;;3.90;51.22
32081;BME280;18593;51.426;7.030;2023-01-28T12:11:26;101982.00;;;3.97;51.46
32081;BME280;18593;51.426;7.030;2023-01-28T12:14:12;101978.75;;;3.84;50.92
32081;BME280;18593;51.426;7.030;2023-01-28T12:16:58;101970.03;;;3.93;50.86
32081;BME280;18593;51.426;7.030;2023-01-28T12:19:35;101959.53;;;4.03;50.88
32081;BME280;18593;51.426;7.030;2023-01-28T12:25:05;101938.22;;;4.16;51.08
32081;BME280;18593;51.426;7.030;2023-01-28T12:27:43;101936.69;;;4.23;51.23
32081;BME280;18593;51.426;7.030;2023-01-28T12:30:21;101934.78;;;4.25;50.78
32081;BME280;18593;51.426;7.030;2023-01-28T12:33:03;101927.75;;;4.14;50.52
32081;BME280;18593;51.426;7.030;2023-01-28T12:35:41;101934.00;;;4.13;49.99
32081;BME280;18593;51.426;7.030;2023-01-28T12:38:20;101932.94;;;4.16;50.50
32081;BME280;18593;51.426;7.030;2023-01-28T12:40:57;101917.53;;;4.21;50.32
32081;BME280;18593;51.426;7.030;2023-01-28T12:43:37;101906.28;;;4.28;50.50
32081;BME280;18593;51.426;7.030;2023-01-28T12:46:10;101896.28;;;4.32;50.55
32081;BME280;18593;51.426;7.030;2023-01-28T12:48:41;101877.53;;;4.35;50.75
32081;BME280;18593;51.426;7.030;2023-01-28T12:51:14;101870.28;;;4.37;50.59
32081;BME280;18593;51.426;7.030;2023-01-28T12:53:45;101858.63;;;4.39;50.81
32081;BME280;18593;51.426;7.030;2023-01-28T12:56:15;101846.38;;;4.38;50.51
32081;BME280;18593;51.426;7.030;2023-01-28T12:58:46;101842.91;;;4.38;50.61
32081;BME280;18593;51.426;7.030;2023-01-28T13:01:17;101837.63;;;4.38;50.75
32081;BME280;18593;51.426;7.030;2023-01-28T13:03:50;101858.47;;;4.31;50.66
32081;BME280;18593;51.426;7.030;2023-01-28T13:06:23;101859.16;;;4.33;50.52
32081;BME280;18593;51.426;7.030;2023-01-28T13:08:55;101857.59;;;4.11;49.45
32081;BME280;18593;51.426;7.030;2023-01-28T13:11:24;101885.50;;;4.14;50.03
32081;BME280;18593;51.426;7.030;2023-01-28T13:13:57;101895.63;;;4.09;49.84
32081;BME280;18593;51.426;7.030;2023-01-28T13:16:24;101884.81;;;4.12;49.98
32081;BME280;18593;51.426;7.030;2023-01-28T13:18:52;101900.13;;;4.18;49.87
32081;BME280;18593;51.426;7.030;2023-01-28T13:21:33;101898.97;;;4.01;49.43
32081;BME280;18593;51.426;7.030;2023-01-28T13:24:05;101901.06;;;4.07;50.23
32081;BME280;18593;51.426;7.030;2023-01-28T13:26:40;101886.63;;;4.11;50.17
32081;BME280;18593;51.426;7.030;2023-01-28T13:29:17;101891.38;;;4.18;50.67
32081;BME280;18593;51.426;7.030;2023-01-28T13:31:46;101888.06;;;4.25;50.46